Time;durP1;ratioP1;P1;durP2;ratioP2;P2;SDS_P1;SDS_P2;PMS_P1;PMS_P2;Temp;Humidity;BMP_temperature;BMP_pressure;BME280_temperature;BME280_humidity;BME280_pressure;Samples;Min_cycle;Max_cycle;Signal;HPM_P1;HPM_P2
2023/09/19 00:00:21;;;;;;;4.70;0.87;;;15.60;81.70;;;;;;4990094;28;20077;-86
2023/09/19 00:03:00;;;;;;;6.75;0.93;;;15.60;81.70;;;;;;4989974;28;20258;-86
2023/09/19 00:05:27;;;;;;;5.80;0.85;;;15.50;81.60;;;;;;4974029;28;20513;-86
2023/09/19 00:07:56;;;;;;;9.93;1.20;;;15.50;81.60;;;;;;5006814;28;20134;-85
2023/09/19 00:10:49;;;;;;;7.15;0.90;;;15.50;81.60;;;;;;4991621;28;20055;-86
2023/09/19 00:13:18;;;;;;;7.03;0.90;;;15.50;81.40;;;;;;4990025;28;20557;-86
2023/09/19 00:15:48;;;;;;;9.52;1.40;;;15.40;81.40;;;;;;4989465;28;20275;-86
2023/09/19 00:18:17;;;;;;;6.18;1.10;;;15.40;81.40;;;;;;4990003;28;20077;-86
2023/09/19 00:20:47;;;;;;;6.70;1.17;;;15.40;81.30;;;;;;4973615;28;20078;-85
2023/09/19 00:23:14;;;;;;;7.45;1.23;;;15.30;81.20;;;;;;4989790;28;20055;-85
2023/09/19 00:25:42;;;;;;;9.63;1.80;;;15.30;81.20;;;;;;5028613;23;20839;-85
2023/09/19 00:28:10;;;;;;;10.43;1.92;;;15.30;81.00;;;;;;4986508;28;20271;-85
2023/09/19 00:30:39;;;;;;;8.48;1.65;;;15.30;81.00;;;;;;4986168;28;20055;-85
2023/09/19 00:33:07;;;;;;;7.15;1.60;;;15.20;81.00;;;;;;5002330;28;20857;-86
2023/09/19 00:35:36;;;;;;;6.32;1.40;;;15.10;81.10;;;;;;5002621;28;20062;-85
2023/09/19 00:38:04;;;;;;;7.73;1.60;;;15.10;81.20;;;;;;4986607;28;20067;-86
2023/09/19 00:40:33;;;;;;;8.00;1.30;;;15.10;81.20;;;;;;4986378;28;20295;-87
2023/09/19 00:43:00;;;;;;;5.68;1.30;;;15.00;81.20;;;;;;5002844;28;20051;-84
2023/09/19 00:45:29;;;;;;;6.78;1.20;;;15.00;81.40;;;;;;5002378;28;20059;-86
2023/09/19 00:47:58;;;;;;;7.43;1.20;;;15.00;81.70;;;;;;5002127;28;20487;-85
2023/09/19 00:50:29;;;;;;;5.40;1.20;;;14.90;81.80;;;;;;4971396;28;20050;-86
2023/09/19 00:52:57;;;;;;;6.70;1.20;;;14.90;82.00;;;;;;4986003;28;20848;-86
2023/09/19 00:55:25;;;;;;;7.63;1.40;;;14.90;82.40;;;;;;4986267;28;20083;-84
2023/09/19 00:57:54;;;;;;;6.63;1.00;;;14.80;82.20;;;;;;4969535;28;20059;-85
2023/09/19 01:00:21;;;;;;;7.32;1.10;;;14.80;82.50;;;;;;4985718;28;20061;-85
2023/09/19 01:02:48;;;;;;;7.50;1.07;;;14.80;82.50;;;;;;4953487;28;20059;-85
2023/09/19 01:05:18;;;;;;;5.93;1.20;;;14.80;82.60;;;;;;4985731;28;20259;-85
2023/09/19 01:07:48;;;;;;;7.03;1.27;;;14.80;82.90;;;;;;4953240;28;20927;-86
2023/09/19 01:10:19;;;;;;;8.85;1.38;;;14.80;82.90;;;;;;4969526;28;20062;-85
2023/09/19 01:12:53;;;;;;;6.50;1.13;;;14.80;82.90;;;;;;4985502;28;20101;-85
2023/09/19 01:15:30;;;;;;;8.10;1.20;;;14.70;83.00;;;;;;4985545;28;20057;-85
2023/09/19 01:18:04;;;;;;;8.93;1.33;;;14.70;83.00;;;;;;4985562;28;20261;-85
2023/09/19 01:20:40;;;;;;;7.15;1.20;;;14.70;82.90;;;;;;4985669;28;20073;-85
2023/09/19 01:23:15;;;;;;;7.55;1.40;;;14.70;83.00;;;;;;4985571;28;20047;-85
2023/09/19 01:26:11;;;;;;;6.32;1.20;;;14.60;83.00;;;;;;4965696;28;20429;-85
2023/09/19 01:28:55;;;;;;;6.73;1.10;;;14.60;83.00;;;;;;4965776;28;20071;-86
2023/09/19 01:31:25;;;;;;;7.97;1.27;;;14.60;82.90;;;;;;4965838;28;20280;-85
2023/09/19 01:34:00;;;;;;;7.63;1.15;;;14.60;82.80;;;;;;4965654;28;20055;-86
2023/09/19 01:36:35;;;;;;;7.93;1.40;;;14.60;82.80;;;;;;4950098;28;20055;-85
2023/09/19 01:39:05;;;;;;;6.85;1.27;;;14.60;82.80;;;;;;4949613;28;20482;-85
2023/09/19 01:41:50;;;;;;;8.17;1.23;;;14.60;82.70;;;;;;4965902;28;20075;-85
2023/09/19 01:44:25;;;;;;;5.43;1.17;;;14.60;82.50;;;;;;4965688;28;20751;-86
2023/09/19 01:46:59;;;;;;;8.52;1.13;;;14.50;82.40;;;;;;4965897;28;20065;-85
2023/09/19 01:49:37;;;;;;;8.43;1.85;;;14.50;82.40;;;;;;4965492;28;20092;-85
2023/09/19 01:52:13;;;;;;;7.82;1.40;;;14.50;82.30;;;;;;4981888;28;20059;-86
2023/09/19 01:54:48;;;;;;;5.73;1.10;;;14.50;82.30;;;;;;4965576;28;20055;-85
2023/09/19 01:57:21;;;;;;;9.20;1.38;;;14.40;82.30;;;;;;4965654;28;20252;-85
2023/09/19 01:59:56;;;;;;;9.00;1.60;;;14.40;82.10;;;;;;4965876;28;20147;-85
2023/09/19 02:02:26;;;;;;;6.80;1.30;;;14.40;82.20;;;;;;4965256;28;20704;-85
2023/09/19 02:04:56;;;;;;;10.90;1.52;;;14.40;82.20;;;;;;4965554;28;20059;-86
2023/09/19 02:07:27;;;;;;;7.57;1.20;;;14.30;82.20;;;;;;4965217;28;20103;-85
2023/09/19 02:09:55;;;;;;;5.18;1.33;;;14.30;82.10;;;;;;4965375;28;20272;-86
2023/09/19 02:12:22;;;;;;;14.35;1.98;;;14.30;82.30;;;;;;4965316;28;20055;-85
2023/09/19 02:14:49;;;;;;;10.55;1.83;;;14.30;82.40;;;;;;4949245;28;20055;-86
2023/09/19 02:17:17;;;;;;;6.88;1.20;;;14.30;82.50;;;;;;4981540;28;21020;-85
2023/09/19 02:19:45;;;;;;;6.83;1.53;;;14.30;82.60;;;;;;4965453;28;20051;-86
2023/09/19 02:22:12;;;;;;;9.32;1.80;;;14.20;82.70;;;;;;4965104;28;20280;-86
2023/09/19 02:24:39;;;;;;;6.65;1.40;;;14.20;82.80;;;;;;4964103;28;20066;-85
2023/09/19 02:27:07;;;;;;;8.38;1.60;;;14.20;82.80;;;;;;4930084;29;20048;-85
2023/09/19 02:29:34;;;;;;;6.43;1.30;;;14.20;82.90;;;;;;4945817;28;20140;-85
2023/09/19 02:32:02;;;;;;;5.30;1.23;;;14.20;82.90;;;;;;4898088;29;20124;-85
2023/09/19 02:34:29;;;;;;;6.35;1.45;;;14.20;82.80;;;;;;4913394;29;20280;-85
2023/09/19 02:36:59;;;;;;;6.30;1.55;;;14.10;83.00;;;;;;4914174;29;20064;-85
2023/09/19 02:39:27;;;;;;;5.85;1.40;;;14.10;83.10;;;;;;4945986;28;20135;-86
2023/09/19 02:41:54;;;;;;;6.60;1.30;;;14.10;83.10;;;;;;4917178;29;20070;-86
2023/09/19 02:44:23;;;;;;;8.37;1.57;;;14.10;83.10;;;;;;4933321;29;20049;-86
2023/09/19 02:46:51;;;;;;;7.88;1.40;;;14.10;83.10;;;;;;4949215;28;20273;-85
2023/09/19 02:49:19;;;;;;;8.32;1.60;;;14.10;83.20;;;;;;4933067;29;20056;-85
2023/09/19 02:51:47;;;;;;;7.63;1.60;;;14.00;83.10;;;;;;4916897;29;20182;-85
2023/09/19 02:54:17;;;;;;;7.63;1.50;;;14.00;83.20;;;;;;4901255;29;20060;-86
2023/09/19 02:56:44;;;;;;;7.33;1.60;;;14.00;83.10;;;;;;4932938;29;20139;-85
2023/09/19 02:59:11;;;;;;;5.43;1.15;;;14.00;83.00;;;;;;4949092;28;20352;-85
2023/09/19 03:01:39;;;;;;;7.65;1.30;;;14.00;83.00;;;;;;4949151;28;20056;-85
2023/09/19 03:04:11;;;;;;;9.02;1.50;;;14.00;82.90;;;;;;4901260;29;20086;-85
2023/09/19 03:06:38;;;;;;;8.02;1.40;;;13.90;83.00;;;;;;4948938;28;20048;-85
2023/09/19 03:09:13;;;;;;;5.20;1.33;;;13.90;83.00;;;;;;4948837;28;20396;-85
2023/09/19 03:11:42;;;;;;;5.45;1.20;;;13.90;82.90;;;;;;4916779;29;20348;-85
2023/09/19 03:14:10;;;;;;;7.07;1.40;;;13.90;82.90;;;;;;4948840;28;20060;-85
2023/09/19 03:16:38;;;;;;;6.45;1.20;;;13.90;82.90;;;;;;4948757;28;20139;-85
2023/09/19 03:19:07;;;;;;;5.82;1.13;;;13.90;82.90;;;;;;4948858;28;20068;-85
2023/09/19 03:21:34;;;;;;;5.03;1.20;;;13.90;82.80;;;;;;5010107;23;20047;-86
2023/09/19 03:24:02;;;;;;;6.22;1.20;;;13.90;82.70;;;;;;4987314;28;20350;-84
2023/09/19 03:26:29;;;;;;;6.20;1.20;;;13.90;82.70;;;;;;4971137;28;20118;-84
2023/09/19 03:28:58;;;;;;;5.72;1.30;;;13.90;82.50;;;;;;4971080;28;20079;-86
2023/09/19 03:31:25;;;;;;;8.43;1.48;;;13.90;82.40;;;;;;4970912;28;20280;-85
2023/09/19 03:33:52;;;;;;;9.03;1.90;;;13.90;82.40;;;;;;4971249;28;20055;-85
2023/09/19 03:36:19;;;;;;;8.68;1.60;;;13.90;82.40;;;;;;4970962;28;20346;-85
2023/09/19 03:38:46;;;;;;;7.63;1.50;;;13.90;82.50;;;;;;4970856;28;20058;-85
2023/09/19 03:41:14;;;;;;;9.40;1.75;;;13.90;82.60;;;;;;4970687;28;20051;-85
2023/09/19 03:43:42;;;;;;;6.72;1.23;;;13.90;82.70;;;;;;4954653;28;20525;-85
2023/09/19 03:46:12;;;;;;;6.73;1.10;;;13.90;82.80;;;;;;4971058;28;20047;-85
2023/09/19 03:48:40;;;;;;;9.13;1.45;;;13.90;82.80;;;;;;4954521;28;20256;-85
2023/09/19 03:51:07;;;;;;;6.63;1.30;;;13.90;82.70;;;;;;4969872;28;20066;-85
2023/09/19 03:53:35;;;;;;;9.70;1.48;;;13.90;82.80;;;;;;4954612;28;20075;-85
2023/09/19 03:56:02;;;;;;;7.72;1.30;;;13.90;82.90;;;;;;4970500;28;20507;-85
2023/09/19 03:58:34;;;;;;;7.63;1.50;;;13.90;82.90;;;;;;4981667;23;20055;-85
2023/09/19 04:01:01;;;;;;;6.25;1.15;;;13.90;82.90;;;;;;4954207;28;20291;-86
2023/09/19 04:03:45;;;;;;;7.18;1.40;;;13.90;83.00;;;;;;4969528;28;20051;-85
2023/09/19 04:06:13;;;;;;;6.85;1.60;;;13.90;83.00;;;;;;4970602;28;20059;-85
2023/09/19 04:08:40;;;;;;;7.78;1.40;;;13.90;83.10;;;;;;4970192;28;20057;-85
2023/09/19 04:11:07;;;;;;;8.30;1.40;;;13.90;83.20;;;;;;4970389;28;20506;-85
2023/09/19 04:13:34;;;;;;;5.32;1.60;;;13.90;83.30;;;;;;4954188;28;20780;-85
2023/09/19 04:16:01;;;;;;;6.85;1.27;;;13.90;83.30;;;;;;4970578;28;20166;-85
2023/09/19 04:18:30;;;;;;;7.07;1.60;;;13.90;83.50;;;;;;4938350;28;20059;-85
2023/09/19 04:20:59;;;;;;;7.38;1.42;;;13.90;83.60;;;;;;4954296;28;20782;-85
2023/09/19 04:23:26;;;;;;;5.80;1.30;;;13.90;83.60;;;;;;4970073;28;20106;-85
2023/09/19 04:25:54;;;;;;;6.93;1.40;;;13.90;83.70;;;;;;4970298;28;20271;-85
2023/09/19 04:28:21;;;;;;;6.15;1.80;;;13.90;83.80;;;;;;4970064;28;20138;-85
2023/09/19 04:30:48;;;;;;;7.97;1.58;;;14.00;83.90;;;;;;4970035;28;20134;-85
2023/09/19 04:33:16;;;;;;;7.43;1.42;;;14.00;83.90;;;;;;4970209;28;20059;-85
2023/09/19 04:35:43;;;;;;;7.83;1.50;;;14.00;84.00;;;;;;4970049;28;20572;-85
2023/09/19 04:38:12;;;;;;;5.78;1.30;;;14.00;84.20;;;;;;4969947;28;20264;-85
2023/09/19 04:40:40;;;;;;;7.82;1.55;;;14.00;84.10;;;;;;4970389;28;20064;-85
2023/09/19 04:43:08;;;;;;;8.52;1.63;;;14.10;84.10;;;;;;4953183;28;20066;-86
2023/09/19 04:45:35;;;;;;;7.88;1.50;;;14.10;84.20;;;;;;4938499;28;20050;-85
2023/09/19 04:48:03;;;;;;;7.50;1.37;;;14.10;84.10;;;;;;4953630;28;20055;-85
2023/09/19 04:50:30;;;;;;;8.43;1.67;;;14.10;84.20;;;;;;4953593;28;20287;-85
2023/09/19 04:52:59;;;;;;;10.63;1.73;;;14.10;84.10;;;;;;4953719;28;20077;-86
2023/09/19 04:55:27;;;;;;;9.88;1.80;;;14.10;84.20;;;;;;4953508;28;20134;-86
2023/09/19 04:57:55;;;;;;;8.27;1.88;;;14.20;84.30;;;;;;4970864;28;20094;-85
2023/09/19 05:00:24;;;;;;;7.07;1.40;;;14.20;84.10;;;;;;4953767;28;20055;-85
2023/09/19 05:02:52;;;;;;;5.68;1.20;;;14.20;84.10;;;;;;4952238;28;20283;-85
2023/09/19 05:05:19;;;;;;;10.15;1.23;;;14.20;84.10;;;;;;4953805;28;20067;-85
2023/09/19 05:07:47;;;;;;;9.13;1.30;;;14.30;84.10;;;;;;4969776;28;20403;-85
2023/09/19 05:10:14;;;;;;;7.13;1.27;;;14.20;84.10;;;;;;4952589;28;20058;-85
2023/09/19 05:12:45;;;;;;;8.83;1.60;;;14.20;84.10;;;;;;4936983;28;20450;-84
2023/09/19 05:15:12;;;;;;;7.40;1.40;;;14.20;84.00;;;;;;4968825;28;20880;-86
2023/09/19 05:17:39;;;;;;;8.77;1.65;;;14.20;84.00;;;;;;4933063;28;20058;-85
2023/09/19 05:20:24;;;;;;;9.90;1.65;;;14.20;84.20;;;;;;4950006;28;20059;-83
2023/09/19 05:23:01;;;;;;;6.07;1.42;;;14.20;84.10;;;;;;4969364;28;20056;-84
2023/09/19 05:25:29;;;;;;;7.83;1.53;;;14.20;84.10;;;;;;4970596;28;20577;-83
2023/09/19 05:27:58;;;;;;;10.07;1.65;;;14.20;84.10;;;;;;4968008;28;20394;-84
2023/09/19 05:30:27;;;;;;;9.57;1.60;;;14.20;84.00;;;;;;4964647;28;20055;-84
2023/09/19 05:32:55;;;;;;;8.25;1.45;;;14.20;83.70;;;;;;4972100;28;20103;-84
2023/09/19 05:35:23;;;;;;;8.27;1.40;;;14.20;83.50;;;;;;4953088;28;20110;-83
2023/09/19 05:37:52;;;;;;;5.63;1.10;;;14.20;83.50;;;;;;4967932;28;20054;-83
2023/09/19 05:40:19;;;;;;;8.50;1.50;;;14.20;83.50;;;;;;4953049;28;20295;-84
2023/09/19 05:42:46;;;;;;;9.48;1.70;;;14.10;83.30;;;;;;4970050;28;20066;-83
2023/09/19 05:45:18;;;;;;;10.73;1.80;;;14.20;83.20;;;;;;4952285;28;20055;-84
2023/09/19 05:47:46;;;;;;;7.03;1.15;;;14.10;83.00;;;;;;4969921;28;20082;-84
2023/09/19 05:50:14;;;;;;;8.67;1.47;;;14.10;82.90;;;;;;4954573;28;20106;-84
2023/09/19 05:52:44;;;;;;;8.50;1.67;;;14.10;82.60;;;;;;4952621;28;20268;-84
2023/09/19 05:55:11;;;;;;;8.90;1.80;;;14.10;82.40;;;;;;4952359;28;20052;-84
2023/09/19 05:57:39;;;;;;;6.25;1.40;;;14.10;82.20;;;;;;4969067;28;20077;-85
2023/09/19 06:00:08;;;;;;;10.18;1.70;;;14.00;82.00;;;;;;4969015;28;20067;-84
2023/09/19 06:02:41;;;;;;;8.63;1.67;;;14.00;81.90;;;;;;4969211;28;20051;-84
2023/09/19 06:05:10;;;;;;;10.38;1.63;;;14.00;81.70;;;;;;4969082;28;20334;-84
2023/09/19 06:07:37;;;;;;;9.43;1.65;;;14.00;81.70;;;;;;4968742;28;20148;-83
2023/09/19 06:10:06;;;;;;;8.07;1.40;;;14.00;81.40;;;;;;4934838;28;20066;-84
2023/09/19 06:12:37;;;;;;;6.82;1.10;;;14.00;81.20;;;;;;4967661;28;20988;-84
2023/09/19 06:15:06;;;;;;;11.13;1.73;;;13.90;81.40;;;;;;4972339;28;20066;-85
2023/09/19 06:17:37;;;;;;;7.50;1.58;;;13.90;81.60;;;;;;4966772;28;20386;-84
2023/09/19 06:20:12;;;;;;;9.63;1.70;;;13.90;81.70;;;;;;4939858;28;20059;-84
2023/09/19 06:22:41;;;;;;;8.32;1.55;;;13.90;81.60;;;;;;4936581;28;20501;-85
2023/09/19 06:25:11;;;;;;;10.15;1.60;;;13.90;81.30;;;;;;4936324;28;20058;-85
2023/09/19 06:27:42;;;;;;;12.67;1.90;;;13.90;80.80;;;;;;4967812;28;20130;-84
2023/09/19 06:30:11;;;;;;;9.60;1.83;;;13.90;81.00;;;;;;4953381;28;20358;-85
2023/09/19 06:32:38;;;;;;;9.23;1.77;;;13.90;80.90;;;;;;4942564;28;20055;-85
2023/09/19 06:35:10;;;;;;;8.05;1.73;;;13.90;80.80;;;;;;4937070;28;20048;-85
2023/09/19 06:37:39;;;;;;;8.65;1.52;;;13.90;80.80;;;;;;4951918;28;20062;-84
2023/09/19 06:40:13;;;;;;;7.03;1.30;;;13.90;80.50;;;;;;4968870;28;20059;-88
2023/09/19 06:42:41;;;;;;;11.02;1.75;;;13.90;80.50;;;;;;4952389;28;20302;-85
2023/09/19 06:45:11;;;;;;;9.90;1.65;;;14.00;80.10;;;;;;4952819;28;20437;-86
2023/09/19 06:47:38;;;;;;;6.28;1.48;;;14.00;80.00;;;;;;4953347;28;20130;-85
2023/09/19 06:50:12;;;;;;;8.73;1.60;;;13.90;80.00;;;;;;4948700;28;20076;-86
2023/09/19 06:52:40;;;;;;;9.43;1.80;;;13.90;80.20;;;;;;4964876;28;20059;-85
2023/09/19 06:55:09;;;;;;;10.70;1.80;;;13.90;80.20;;;;;;4949677;28;20363;-84
2023/09/19 06:57:36;;;;;;;8.30;1.35;;;14.00;80.10;;;;;;4951833;28;20052;-84
2023/09/19 07:00:09;;;;;;;10.27;2.10;;;13.90;80.30;;;;;;4943232;28;20517;-84
2023/09/19 07:02:36;;;;;;;11.52;1.80;;;13.90;80.40;;;;;;4967952;28;20134;-85
2023/09/19 07:05:03;;;;;;;9.17;1.63;;;14.00;80.40;;;;;;4950979;28;20544;-85
2023/09/19 07:07:34;;;;;;;10.75;1.58;;;14.00;80.40;;;;;;4965018;28;20262;-85
2023/09/19 07:10:01;;;;;;;8.50;1.35;;;14.00;80.50;;;;;;4966781;28;20051;-86
2023/09/19 07:12:28;;;;;;;9.27;1.55;;;14.00;80.70;;;;;;4973856;28;20059;-86
2023/09/19 07:14:59;;;;;;;10.98;1.77;;;14.00;80.90;;;;;;4961259;28;20489;-90
2023/09/19 07:17:27;;;;;;;11.37;1.90;;;14.10;80.90;;;;;;4950689;28;20597;-84
2023/09/19 07:19:54;;;;;;;6.88;1.58;;;14.20;80.90;;;;;;4968404;28;20279;-87
2023/09/19 07:22:23;;;;;;;7.60;1.55;;;14.20;80.90;;;;;;4951282;28;20748;-86
2023/09/19 07:24:51;;;;;;;7.25;1.55;;;14.20;80.70;;;;;;4935051;28;20142;-83
2023/09/19 07:27:18;;;;;;;12.88;1.90;;;14.30;80.80;;;;;;4940375;28;20051;-84
2023/09/19 07:29:45;;;;;;;8.00;1.57;;;14.30;80.40;;;;;;4969032;28;20078;-85
2023/09/19 07:32:13;;;;;;;10.45;1.67;;;14.40;80.10;;;;;;4944504;28;20694;-84
2023/09/19 07:34:41;;;;;;;9.48;1.85;;;14.40;79.80;;;;;;4987128;28;20055;-86
2023/09/19 07:37:09;;;;;;;8.82;1.83;;;14.50;79.50;;;;;;4971203;28;20522;-85
2023/09/19 07:39:36;;;;;;;7.25;1.75;;;14.50;79.50;;;;;;4938567;28;20059;-84
2023/09/19 07:42:07;;;;;;;10.47;1.90;;;14.50;79.50;;;;;;4937802;28;20059;-87
2023/09/19 07:44:35;;;;;;;9.43;1.77;;;14.50;79.40;;;;;;4969906;28;20297;-86
2023/09/19 07:47:03;;;;;;;8.35;1.48;;;14.50;79.40;;;;;;4936425;28;20059;-84
2023/09/19 07:49:30;;;;;;;9.48;1.50;;;14.50;79.40;;;;;;4934487;28;20422;-87
2023/09/19 07:51:59;;;;;;;9.10;2.10;;;14.50;79.60;;;;;;4937925;28;20059;-84
2023/09/19 07:54:26;;;;;;;10.07;1.73;;;14.50;79.70;;;;;;4970151;28;20688;-85
2023/09/19 07:56:55;;;;;;;12.55;2.17;;;14.50;79.70;;;;;;4969414;28;20758;-86
2023/09/19 07:59:23;;;;;;;9.18;1.70;;;14.50;80.00;;;;;;4970608;28;20086;-85
2023/09/19 08:01:50;;;;;;;9.85;1.90;;;14.50;79.90;;;;;;4938441;28;20195;-86
2023/09/19 08:04:19;;;;;;;10.70;1.88;;;14.60;79.90;;;;;;4936034;28;20142;-86
2023/09/19 08:06:46;;;;;;;11.30;1.60;;;14.60;80.00;;;;;;4936937;28;20091;-86
2023/09/19 08:09:20;;;;;;;8.43;1.67;;;14.60;79.80;;;;;;4934572;28;20288;-86
2023/09/19 08:11:47;;;;;;;7.47;1.35;;;14.60;79.80;;;;;;4944524;28;20055;-85
2023/09/19 08:14:15;;;;;;;10.45;1.77;;;14.70;79.50;;;;;;4953968;28;20090;-85
2023/09/19 08:16:43;;;;;;;9.13;1.40;;;14.70;79.30;;;;;;4970334;28;20561;-85
2023/09/19 08:19:11;;;;;;;10.47;1.60;;;14.70;79.30;;;;;;4970268;28;20059;-86
2023/09/19 08:21:38;;;;;;;9.88;1.88;;;14.70;79.60;;;;;;4970596;28;20749;-86
2023/09/19 08:24:05;;;;;;;10.23;1.90;;;14.70;79.70;;;;;;4954197;28;20155;-86
2023/09/19 08:26:32;;;;;;;8.32;1.67;;;14.80;79.50;;;;;;4954241;28;20051;-85
2023/09/19 08:29:04;;;;;;;9.05;1.83;;;14.80;79.50;;;;;;4970413;28;20529;-85
2023/09/19 08:31:31;;;;;;;8.90;2.10;;;14.90;79.70;;;;;;4967244;28;20047;-86
2023/09/19 08:34:00;;;;;;;7.72;1.60;;;14.90;79.60;;;;;;4967743;28;20260;-86
2023/09/19 08:36:27;;;;;;;10.70;1.95;;;15.00;79.60;;;;;;4970028;28;20158;-86
2023/09/19 08:38:54;;;;;;;10.73;1.95;;;15.00;79.40;;;;;;4954093;28;20057;-85
2023/09/19 08:41:21;;;;;;;11.00;1.55;;;15.00;79.60;;;;;;4937306;28;20051;-85
2023/09/19 08:43:48;;;;;;;10.63;1.87;;;15.00;79.80;;;;;;4937771;28;20138;-86
2023/09/19 08:46:17;;;;;;;7.07;1.80;;;15.10;80.00;;;;;;4938327;28;20270;-85
2023/09/19 08:48:51;;;;;;;9.98;1.83;;;15.20;79.80;;;;;;4951561;28;21054;-85
2023/09/19 08:51:32;;;;;;;9.65;1.80;;;15.20;79.70;;;;;;4948888;28;20590;-86
2023/09/19 08:54:04;;;;;;;9.27;1.85;;;15.30;79.90;;;;;;4934833;28;20062;-86
2023/09/19 08:56:33;;;;;;;7.50;1.90;;;15.40;79.40;;;;;;4933454;28;20074;-86
2023/09/19 08:59:03;;;;;;;12.32;2.10;;;15.40;79.50;;;;;;4953397;28;20286;-86
2023/09/19 09:01:32;;;;;;;13.77;2.22;;;15.50;79.00;;;;;;4953359;28;21070;-86
2023/09/19 09:03:59;;;;;;;11.07;1.75;;;15.60;78.90;;;;;;4953625;28;20155;-86
2023/09/19 09:06:28;;;;;;;8.90;1.42;;;15.60;77.60;;;;;;4969448;28;20053;-86
2023/09/19 09:08:56;;;;;;;11.57;2.10;;;15.70;77.80;;;;;;4953259;28;20051;-85
2023/09/19 09:11:24;;;;;;;11.90;2.13;;;15.80;77.40;;;;;;4971070;28;21113;-86
2023/09/19 09:13:51;;;;;;;12.30;1.83;;;15.80;77.00;;;;;;4926301;28;21016;-85
2023/09/19 09:16:18;;;;;;;10.30;2.25;;;15.90;77.50;;;;;;4952619;28;20048;-86
2023/09/19 09:18:52;;;;;;;14.90;2.60;;;16.00;77.20;;;;;;4952992;28;20142;-86
2023/09/19 09:21:21;;;;;;;7.13;1.80;;;16.00;76.20;;;;;;4969229;28;20077;-85
2023/09/19 09:23:51;;;;;;;12.95;2.20;;;16.10;75.20;;;;;;4968749;28;20287;-86
2023/09/19 09:26:26;;;;;;;10.40;2.22;;;16.20;75.60;;;;;;4952506;28;20051;-85
2023/09/19 09:28:53;;;;;;;10.63;2.10;;;16.20;74.90;;;;;;4936767;28;20064;-85
2023/09/19 09:31:25;;;;;;;10.27;1.90;;;16.30;74.90;;;;;;4968793;28;20059;-86
2023/09/19 09:33:57;;;;;;;9.70;1.67;;;16.40;75.00;;;;;;4952535;28;20592;-85
2023/09/19 09:36:37;;;;;;;10.70;1.40;;;16.40;74.80;;;;;;4936890;28;20271;-86
2023/09/19 09:39:18;;;;;;;11.75;1.60;;;16.50;74.40;;;;;;4936491;28;20138;-86
2023/09/19 09:41:46;;;;;;;9.55;1.80;;;16.50;73.90;;;;;;4964095;28;20462;-86
2023/09/19 09:44:15;;;;;;;12.52;1.90;;;16.70;73.10;;;;;;4968565;28;21085;-86
2023/09/19 09:49:34;;;;;;;8.13;1.45;;;16.80;73.00;;;;;;4952041;28;20306;-87
2023/09/19 09:52:05;;;;;;;12.45;2.03;;;16.80;73.20;;;;;;4951932;28;20514;-85
2023/09/19 09:54:37;;;;;;;10.02;1.70;;;16.90;71.90;;;;;;4952275;28;20118;-86
2023/09/19 09:57:16;;;;;;;9.70;2.10;;;16.90;71.90;;;;;;4946774;28;20054;-85
2023/09/19 09:59:49;;;;;;;10.50;1.80;;;16.90;71.90;;;;;;4933302;28;20058;-85
2023/09/19 10:02:23;;;;;;;11.48;2.20;;;17.00;71.90;;;;;;4935666;28;20289;-86
2023/09/19 10:05:09;;;;;;;10.60;1.80;;;17.00;70.80;;;;;;4965405;28;21046;-86
2023/09/19 10:07:41;;;;;;;11.82;2.25;;;17.10;70.30;;;;;;4935847;28;20441;-85
2023/09/19 10:10:21;;;;;;;12.60;2.20;;;17.10;70.90;;;;;;4968315;28;20142;-85
2023/09/19 10:12:50;;;;;;;12.07;2.37;;;17.20;70.30;;;;;;4938692;28;20611;-85
2023/09/19 10:15:21;;;;;;;7.63;1.60;;;17.20;69.90;;;;;;4950973;28;20260;-86
2023/09/19 10:17:48;;;;;;;10.48;2.20;;;17.20;70.10;;;;;;4967327;28;20059;-84
2023/09/19 10:20:33;;;;;;;11.77;2.28;;;17.20;69.90;;;;;;4967454;28;20047;-84
2023/09/19 10:23:01;;;;;;;7.70;1.70;;;17.30;69.70;;;;;;4943330;28;20102;-85
2023/09/19 10:25:31;;;;;;;11.67;2.60;;;17.30;70.00;;;;;;4980134;28;20114;-85
2023/09/19 10:28:03;;;;;;;11.15;2.28;;;17.40;69.10;;;;;;4964634;28;20342;-88
2023/09/19 10:30:32;;;;;;;10.27;2.50;;;17.40;69.20;;;;;;4961607;28;20517;-86
2023/09/19 10:33:02;;;;;;;9.23;2.05;;;17.40;68.70;;;;;;4970882;28;20055;-86
2023/09/19 10:35:42;;;;;;;10.13;2.20;;;17.50;68.40;;;;;;4953487;28;20122;-89
2023/09/19 10:38:18;;;;;;;10.70;2.37;;;17.50;67.80;;;;;;4939347;28;20055;-90
2023/09/19 10:43:46;;;;;;;9.82;2.30;;;17.50;67.10;;;;;;4967252;28;20126;-86
2023/09/19 10:46:14;;;;;;;9.57;2.10;;;17.50;67.00;;;;;;4969447;28;20062;-85
2023/09/19 10:48:43;;;;;;;13.50;2.97;;;17.50;67.20;;;;;;4953435;28;20146;-89
2023/09/19 10:51:15;;;;;;;9.07;2.30;;;17.40;68.20;;;;;;4936479;28;20055;-89
2023/09/19 10:53:48;;;;;;;10.27;2.35;;;17.50;67.90;;;;;;4960202;28;21137;-88
2023/09/19 10:56:28;;;;;;;11.10;2.30;;;17.50;67.50;;;;;;4970815;28;20110;-88
2023/09/19 10:59:57;;;;;;;9.50;2.33;;;17.60;67.70;;;;;;4957310;28;20075;-91
2023/09/19 11:02:25;;;;;;;9.80;2.38;;;17.60;67.90;;;;;;4959453;28;20055;-85
2023/09/19 11:08:23;;;;;;;12.85;2.42;;;17.80;67.40;;;;;;4972881;28;20275;-89
2023/09/19 11:10:52;;;;;;;10.20;1.75;;;17.80;67.60;;;;;;4941841;28;20055;-89
2023/09/19 11:13:37;;;;;;;9.70;2.00;;;17.80;67.50;;;;;;4970724;28;20051;-87
2023/09/19 11:16:06;;;;;;;8.73;1.95;;;17.80;67.90;;;;;;4952953;28;20058;-86
2023/09/19 11:18:52;;;;;;;8.17;1.53;;;17.90;67.80;;;;;;4955122;28;20134;-87
2023/09/19 11:21:56;;;;;;;10.82;2.00;;;18.00;66.50;;;;;;4955818;28;20422;-88
2023/09/19 11:24:31;;;;;;;9.60;2.17;;;18.00;66.90;;;;;;4943626;28;20062;-83
2023/09/19 11:27:17;;;;;;;12.30;1.90;;;18.00;67.00;;;;;;4955732;28;20160;-85
2023/09/19 11:29:47;;;;;;;9.82;1.83;;;18.00;67.20;;;;;;4955381;28;20087;-86
2023/09/19 11:32:16;;;;;;;11.00;1.90;;;18.00;68.20;;;;;;4956978;28;21015;-86
2023/09/19 11:34:45;;;;;;;9.02;2.00;;;18.00;67.40;;;;;;4938296;28;20288;-85
2023/09/19 11:38:12;;;;;;;12.25;2.00;;;18.00;67.20;;;;;;4963813;28;20047;-91
2023/09/19 11:40:39;;;;;;;9.38;1.52;;;18.10;68.10;;;;;;4958977;28;20110;-89
2023/09/19 11:43:41;;;;;;;10.65;2.08;;;18.10;67.70;;;;;;4957108;28;20880;-93
2023/09/19 11:46:16;;;;;;;13.50;2.33;;;18.10;67.50;;;;;;4942609;28;20047;-85
2023/09/19 11:48:45;;;;;;;8.93;1.80;;;18.10;66.90;;;;;;4974305;28;20254;-86
2023/09/19 11:51:22;;;;;;;11.63;1.90;;;18.10;67.00;;;;;;4953209;28;20982;-85
2023/09/19 11:54:06;;;;;;;12.10;1.92;;;18.20;67.10;;;;;;4969421;28;20067;-88
2023/09/19 11:56:40;;;;;;;7.65;1.70;;;18.20;67.00;;;;;;4939651;28;20114;-86
2023/09/19 11:59:08;;;;;;;8.10;1.60;;;18.10;67.40;;;;;;4953143;28;20521;-85
2023/09/19 12:01:44;;;;;;;10.95;1.80;;;18.10;67.50;;;;;;4953660;28;20275;-86
2023/09/19 12:04:15;;;;;;;9.98;1.88;;;18.10;67.40;;;;;;4955136;28;20048;-85
2023/09/19 12:06:44;;;;;;;6.70;1.42;;;18.20;67.20;;;;;;4951146;28;20546;-83
2023/09/19 12:09:16;;;;;;;9.68;1.83;;;18.10;67.90;;;;;;4963986;28;20975;-86
2023/09/19 12:11:45;;;;;;;7.97;1.73;;;18.10;67.80;;;;;;4952835;28;20079;-85
2023/09/19 12:14:15;;;;;;;13.13;2.47;;;18.10;67.60;;;;;;4941378;28;20831;-88
2023/09/19 12:20:11;;;;;;;7.50;1.48;;;18.10;67.80;;;;;;4856322;29;20111;-88
2023/09/19 12:22:40;;;;;;;8.55;1.65;;;18.10;67.40;;;;;;4887743;28;20052;-87
2023/09/19 12:25:10;;;;;;;7.80;1.60;;;18.10;67.30;;;;;;4935937;28;20051;-86
2023/09/19 12:27:44;;;;;;;7.68;1.60;;;18.10;67.20;;;;;;4952707;28;20370;-85
2023/09/19 12:30:14;;;;;;;7.47;1.55;;;18.10;67.20;;;;;;4951986;28;20059;-85
2023/09/19 12:32:42;;;;;;;9.60;1.98;;;18.00;67.50;;;;;;4970313;28;20066;-85
2023/09/19 12:35:10;;;;;;;8.68;1.70;;;18.10;67.60;;;;;;4950995;28;20059;-83
2023/09/19 12:37:38;;;;;;;10.50;2.10;;;18.10;67.60;;;;;;4937130;28;20685;-87
2023/09/19 12:40:18;;;;;;;10.88;2.00;;;18.00;67.60;;;;;;4938041;28;20262;-85
2023/09/19 12:42:46;;;;;;;8.98;1.80;;;18.10;67.40;;;;;;4933862;28;20058;-86
2023/09/19 12:45:18;;;;;;;8.02;1.50;;;18.10;67.50;;;;;;4953436;28;20612;-86
2023/09/19 12:48:21;;;;;;;8.57;1.65;;;18.00;67.90;;;;;;4933918;28;20071;-82
2023/09/19 12:51:05;;;;;;;5.87;1.40;;;18.00;67.70;;;;;;4970754;28;20058;-83
2023/09/19 12:53:36;;;;;;;9.57;1.73;;;18.10;67.50;;;;;;4970901;28;20478;-83
2023/09/19 12:56:05;;;;;;;6.28;1.60;;;18.00;68.00;;;;;;4943126;28;20047;-84
2023/09/19 12:58:34;;;;;;;7.80;1.52;;;18.10;68.00;;;;;;4969038;28;20056;-84
2023/09/19 13:01:05;;;;;;;6.70;1.30;;;18.10;67.70;;;;;;4968366;28;20994;-84
2023/09/19 13:03:35;;;;;;;8.57;1.60;;;18.10;68.00;;;;;;4960596;28;20059;-84
2023/09/19 13:06:04;;;;;;;7.68;1.77;;;18.10;67.90;;;;;;4936093;28;20366;-85
2023/09/19 13:08:33;;;;;;;7.82;1.80;;;18.20;67.60;;;;;;4968706;28;20199;-84
2023/09/19 13:11:06;;;;;;;6.20;1.60;;;18.20;67.50;;;;;;4936648;28;20063;-84
2023/09/19 13:13:35;;;;;;;7.55;1.70;;;18.20;67.40;;;;;;4952747;28;21041;-88